createdAt,value
2023-02-28T00:01:35.901Z,5.46
2023-02-28T00:04:04.281Z,5.35
2023-02-28T00:06:33.717Z,5.40
2023-02-28T00:09:02.168Z,5.31
2023-02-28T00:11:30.853Z,5.33
2023-02-28T00:13:59.762Z,5.33
2023-02-28T00:16:29.088Z,5.34
2023-02-28T00:18:57.771Z,5.32
2023-02-28T00:21:27.771Z,5.30
2023-02-28T00:23:56.471Z,5.30
2023-02-28T00:26:25.017Z,5.34
2023-02-28T00:28:53.999Z,5.36
2023-02-28T00:31:23.075Z,5.30
2023-02-28T00:33:53.286Z,5.33
2023-02-28T00:36:22.831Z,5.24
2023-02-28T00:38:51.493Z,5.31
2023-02-28T00:41:19.901Z,5.32
2023-02-28T00:43:49.080Z,5.32
2023-02-28T00:46:20.894Z,5.17
2023-02-28T00:48:48.802Z,5.25
2023-02-28T00:51:16.675Z,5.29
2023-02-28T00:53:45.436Z,5.31
2023-02-28T00:56:14.823Z,5.29
2023-02-28T00:58:43.153Z,5.31
2023-02-28T01:01:11.709Z,5.26
2023-02-28T01:03:40.254Z,5.34
2023-02-28T01:06:08.457Z,5.35
2023-02-28T01:08:36.611Z,5.35
2023-02-28T01:11:13.551Z,5.30
2023-02-28T01:13:44.129Z,5.31
2023-02-28T01:16:15.031Z,5.28
2023-02-28T01:18:43.693Z,5.35
2023-02-28T01:21:18.100Z,5.32
2023-02-28T01:23:47.539Z,5.29
2023-02-28T01:26:23.286Z,5.28
2023-02-28T01:28:53.495Z,5.25
2023-02-28T01:31:23.004Z,5.25
2023-02-28T01:33:51.843Z,5.23
2023-02-28T01:36:24.744Z,5.24
2023-02-28T01:38:54.202Z,5.23
2023-02-28T01:41:30.764Z,5.17
2023-02-28T01:44:07.973Z,5.19
2023-02-28T01:46:37.692Z,5.18
2023-02-28T01:49:18.450Z,5.12
2023-02-28T01:51:55.788Z,5.08
2023-02-28T01:54:36.574Z,5.08
2023-02-28T01:57:18.048Z,5.04
2023-02-28T02:00:10.297Z,5.06
2023-02-28T02:02:47.718Z,5.04
2023-02-28T02:05:32.354Z,4.94
2023-02-28T02:08:13.363Z,5.03
2023-02-28T02:10:51.254Z,4.98
2023-02-28T02:13:56.629Z,5.02
2023-02-28T02:16:44.952Z,4.98
2023-02-28T02:19:55.895Z,4.90
2023-02-28T02:22:46.163Z,4.86
2023-02-28T02:25:46.409Z,4.76
2023-02-28T02:28:35.314Z,4.78
2023-02-28T02:31:36.578Z,4.72
2023-02-28T02:34:40.468Z,4.76
2023-02-28T02:37:17.915Z,4.73
2023-02-28T02:39:52.887Z,4.71
2023-02-28T02:42:31.133Z,4.73
2023-02-28T02:45:23.842Z,4.73
2023-02-28T02:47:52.894Z,4.66
2023-02-28T02:50:28.905Z,4.71
2023-02-28T02:53:04.538Z,4.68
2023-02-28T02:55:40.022Z,4.55
2023-02-28T02:58:20.567Z,4.65
2023-02-28T03:00:55.061Z,4.63
2023-02-28T03:03:35.715Z,4.50
2023-02-28T03:06:06.976Z,4.55
2023-02-28T03:08:38.985Z,4.59
2023-02-28T03:11:16.343Z,4.60
2023-02-28T03:13:51.432Z,4.59
2023-02-28T03:16:42.806Z,4.60
2023-02-28T03:19:34.115Z,4.56
2023-02-28T03:22:34.584Z,4.54
2023-02-28T03:25:26.583Z,4.53
2023-02-28T03:28:28.176Z,4.54
2023-02-28T03:31:10.313Z,4.36
2023-02-28T03:34:19.840Z,4.49
2023-02-28T03:37:16.400Z,4.46
2023-02-28T03:40:02.194Z,4.49
2023-02-28T03:42:36.608Z,4.50
2023-02-28T03:45:13.995Z,4.52
2023-02-28T03:47:50.209Z,4.51
2023-02-28T03:50:40.665Z,4.50
2023-02-28T03:53:20.721Z,4.47
2023-02-28T03:56:07.377Z,4.50
2023-02-28T03:59:07.936Z,4.43
2023-02-28T04:01:45.942Z,4.41
2023-02-28T04:04:15.473Z,4.32
2023-02-28T04:06:46.400Z,4.32
2023-02-28T04:09:16.280Z,4.42
2023-02-28T04:11:50.648Z,4.36
2023-02-28T04:14:19.932Z,4.43
2023-02-28T04:16:48.657Z,4.39
2023-02-28T04:19:18.125Z,4.43
2023-02-28T04:21:52.554Z,4.39
2023-02-28T04:24:25.757Z,4.38
2023-02-28T04:26:57.423Z,4.44
2023-02-28T04:29:33.174Z,4.48
2023-02-28T04:32:03.598Z,4.49
2023-02-28T04:34:33.940Z,4.35
2023-02-28T04:37:12.770Z,4.49
2023-02-28T04:39:42.881Z,4.61
2023-02-28T04:42:12.252Z,4.62
2023-02-28T04:44:42.057Z,4.54
2023-02-28T04:47:10.138Z,4.62
2023-02-28T04:49:39.255Z,4.66
2023-02-28T04:52:08.637Z,4.57
2023-02-28T04:54:36.776Z,4.72
2023-02-28T04:57:05.575Z,4.69
2023-02-28T04:59:34.163Z,4.70
2023-02-28T05:02:08.305Z,4.66
2023-02-28T05:04:37.902Z,4.76
2023-02-28T05:07:06.371Z,4.79
2023-02-28T05:09:34.677Z,4.87
2023-02-28T05:12:04.510Z,4.81
2023-02-28T05:14:33.577Z,4.84
2023-02-28T05:17:04.453Z,4.95
2023-02-28T05:19:33.013Z,4.92
2023-02-28T05:22:01.511Z,5.03
2023-02-28T05:24:29.997Z,4.95
2023-02-28T05:26:58.649Z,4.96
2023-02-28T05:29:27.892Z,5.04
2023-02-28T05:31:56.406Z,5.07
2023-02-28T05:34:24.694Z,5.03
2023-02-28T05:36:53.933Z,5.04
2023-02-28T05:39:24.100Z,5.15
2023-02-28T05:41:53.224Z,5.11
2023-02-28T05:44:21.359Z,5.13
2023-02-28T05:46:49.362Z,5.08
2023-02-28T05:49:18.987Z,5.12
2023-02-28T05:51:47.604Z,5.04
2023-02-28T05:54:16.585Z,5.03
2023-02-28T05:56:47.736Z,5.10
2023-02-28T05:59:17.122Z,5.02
2023-02-28T06:01:49.567Z,5.02
2023-02-28T06:04:31.465Z,4.96
2023-02-28T06:07:01.321Z,4.92
2023-02-28T06:09:30.257Z,4.89
2023-02-28T06:12:04.810Z,4.91
2023-02-28T06:14:34.966Z,4.89
2023-02-28T06:17:07.871Z,4.90
2023-02-28T06:19:40.106Z,4.86
2023-02-28T06:22:09.999Z,4.87
2023-02-28T06:24:38.182Z,4.87
2023-02-28T06:27:06.703Z,4.89
2023-02-28T06:29:40.906Z,4.87
2023-02-28T06:32:09.806Z,4.91
2023-02-28T06:34:38.498Z,4.89
2023-02-28T06:37:07.121Z,4.98
2023-02-28T06:39:37.479Z,4.90
2023-02-28T06:42:06.385Z,4.96
2023-02-28T06:44:41.481Z,5.01
2023-02-28T06:47:10.730Z,5.06
2023-02-28T06:49:41.385Z,4.91
2023-02-28T06:52:13.729Z,5.02
2023-02-28T06:54:43.677Z,5.02
2023-02-28T06:57:12.208Z,5.08
2023-02-28T06:59:41.057Z,5.21
2023-02-28T07:02:12.761Z,5.18
2023-02-28T07:04:45.955Z,5.20
2023-02-28T07:07:16.079Z,5.14
2023-02-28T07:09:45.092Z,5.11
2023-02-28T07:12:16.432Z,5.28
2023-02-28T07:14:44.586Z,5.26
2023-02-28T07:17:13.474Z,5.24
2023-02-28T07:19:41.536Z,5.33
2023-02-28T07:22:09.792Z,5.30
2023-02-28T07:24:42.016Z,5.40
2023-02-28T07:27:10.178Z,5.40
2023-02-28T07:29:39.636Z,5.28
2023-02-28T07:32:07.944Z,5.34
2023-02-28T07:34:36.674Z,5.33
2023-02-28T07:37:06.231Z,5.34
2023-02-28T07:39:34.376Z,5.41
2023-02-28T07:42:12.860Z,5.37
2023-02-28T07:44:41.929Z,5.37
2023-02-28T07:47:13.033Z,5.53
2023-02-28T07:49:41.420Z,5.46
2023-02-28T07:52:12.263Z,5.47
2023-02-28T07:54:40.674Z,5.56
2023-02-28T07:57:09.585Z,5.54
2023-02-28T07:59:40.072Z,5.55
2023-02-28T08:02:13.634Z,5.54
2023-02-28T08:04:44.515Z,5.56
2023-02-28T08:07:15.194Z,5.68
2023-02-28T08:09:44.464Z,5.61
2023-02-28T08:12:14.778Z,5.59
2023-02-28T08:14:45.742Z,5.76
2023-02-28T08:17:15.873Z,5.75
2023-02-28T08:19:47.156Z,5.76
2023-02-28T08:22:15.646Z,5.87
2023-02-28T08:24:45.445Z,5.90
2023-02-28T08:27:14.547Z,5.92
2023-02-28T08:29:45.945Z,6.00
2023-02-28T08:32:29.054Z,5.80
2023-02-28T08:34:59.663Z,5.82
2023-02-28T08:37:28.167Z,5.95
2023-02-28T08:39:57.008Z,5.93
2023-02-28T08:42:26.176Z,5.95
2023-02-28T08:44:56.544Z,5.99
2023-02-28T08:47:25.420Z,6.06
2023-02-28T08:49:55.535Z,6.03
2023-02-28T08:52:24.891Z,6.17
2023-02-28T08:54:55.479Z,6.23
2023-02-28T08:57:23.776Z,6.21
2023-02-28T09:00:16.326Z,6.31
2023-02-28T09:02:46.216Z,6.39
2023-02-28T09:05:35.860Z,6.41
2023-02-28T09:08:04.862Z,6.49
2023-02-28T09:10:33.097Z,6.45
2023-02-28T09:13:03.673Z,6.55
2023-02-28T09:15:32.964Z,6.53
2023-02-28T09:18:01.173Z,6.50
2023-02-28T09:20:30.044Z,6.66
2023-02-28T09:22:58.378Z,6.68
2023-02-28T09:25:26.985Z,6.71
2023-02-28T09:27:56.035Z,6.89
2023-02-28T09:30:24.714Z,6.84
2023-02-28T09:32:55.421Z,6.97
2023-02-28T09:35:26.140Z,6.94
2023-02-28T09:37:59.981Z,6.93
2023-02-28T09:40:34.124Z,6.92
2023-02-28T09:43:07.508Z,7.04
2023-02-28T09:45:43.768Z,7.17
2023-02-28T09:48:19.708Z,7.26
2023-02-28T09:50:52.662Z,7.32
2023-02-28T09:54:01.377Z,7.49
2023-02-28T09:56:42.844Z,7.39
2023-02-28T09:59:37.898Z,7.39
2023-02-28T10:02:50.612Z,7.52
2023-02-28T10:05:32.857Z,7.47
2023-02-28T10:08:40.389Z,7.54
2023-02-28T10:11:57.188Z,7.56
2023-02-28T10:14:49.600Z,7.65
2023-02-28T10:17:55.013Z,7.66
2023-02-28T10:20:36.949Z,7.76
2023-02-28T10:23:29.104Z,7.85
2023-02-28T10:26:13.095Z,7.89
2023-02-28T10:28:42.172Z,7.87
2023-02-28T10:31:26.394Z,7.90
2023-02-28T10:33:56.665Z,7.92
2023-02-28T10:36:31.466Z,7.90
2023-02-28T10:39:26.031Z,7.99
2023-02-28T10:42:07.387Z,8.00
2023-02-28T10:44:38.626Z,8.06
2023-02-28T10:47:20.044Z,8.14
2023-02-28T10:52:55.409Z,8.15
2023-02-28T10:55:34.711Z,8.31
2023-02-28T10:58:48.989Z,8.49
2023-02-28T11:01:23.279Z,8.48
2023-02-28T11:07:37.343Z,8.41
2023-02-28T11:10:21.534Z,8.29
2023-02-28T11:12:57.653Z,8.54
2023-02-28T11:16:21.880Z,8.51
2023-02-28T11:19:03.037Z,8.53
2023-02-28T11:21:41.479Z,8.60
2023-02-28T11:24:48.189Z,8.68
2023-02-28T11:27:30.812Z,8.62
2023-02-28T11:30:00.985Z,8.55
2023-02-28T11:32:32.638Z,8.51
2023-02-28T11:35:23.505Z,8.54
2023-02-28T11:37:53.055Z,8.52
2023-02-28T11:41:03.769Z,8.61
2023-02-28T11:44:12.555Z,8.66
2023-02-28T11:46:58.648Z,8.60
2023-02-28T11:49:52.851Z,8.70
2023-02-28T11:52:53.030Z,8.75
2023-02-28T11:55:27.703Z,8.70
2023-02-28T11:58:28.282Z,8.96
2023-02-28T12:01:10.398Z,9.01
2023-02-28T12:04:22.738Z,9.03
2023-02-28T12:07:22.472Z,8.97
2023-02-28T12:10:30.394Z,9.11
2023-02-28T12:13:21.456Z,9.15
2023-02-28T12:16:29.226Z,9.25
2023-02-28T12:19:15.330Z,9.28
2023-02-28T12:22:23.046Z,9.22
2023-02-28T12:25:09.065Z,9.32
2023-02-28T12:27:47.287Z,9.45
2023-02-28T12:30:29.013Z,9.53
2023-02-28T12:33:15.574Z,9.56
2023-02-28T12:36:02.257Z,9.61
2023-02-28T12:39:00.332Z,9.76
2023-02-28T12:42:01.175Z,9.81
2023-02-28T12:44:40.975Z,10.01
2023-02-28T12:47:18.238Z,10.20
2023-02-28T12:50:17.843Z,10.41
2023-02-28T12:53:29.854Z,10.51
2023-02-28T12:56:36.871Z,10.59
2023-02-28T12:59:49.197Z,10.68
2023-02-28T13:02:26.357Z,10.75
2023-02-28T13:05:09.885Z,10.79
2023-02-28T13:08:39.128Z,10.73
2023-02-28T13:11:20.956Z,10.63
2023-02-28T13:14:21.258Z,10.68
2023-02-28T13:17:12.712Z,10.78
2023-02-28T13:20:16.325Z,10.76
2023-02-28T13:22:52.608Z,10.63
2023-02-28T13:25:42.875Z,10.75
2023-02-28T13:28:15.990Z,10.72
2023-02-28T13:30:54.303Z,10.76
2023-02-28T13:33:31.453Z,10.70
2023-02-28T13:36:15.512Z,10.82
2023-02-28T13:38:53.135Z,10.81
2023-02-28T13:41:43.227Z,10.82
2023-02-28T13:44:16.551Z,10.77
2023-02-28T13:46:52.042Z,10.88
2023-02-28T13:49:27.594Z,10.84
2023-02-28T13:52:08.786Z,10.75
2023-02-28T13:55:20.889Z,10.75
2023-02-28T13:58:16.673Z,10.73
2023-02-28T14:01:13.189Z,10.79
2023-02-28T14:03:42.043Z,10.79
2023-02-28T14:06:36.188Z,10.76
2023-02-28T14:09:41.341Z,10.73
2023-02-28T14:12:53.521Z,10.60
2023-02-28T14:15:40.372Z,10.56
2023-02-28T14:18:41.477Z,10.55
2023-02-28T14:21:30.570Z,10.49
2023-02-28T14:24:33.222Z,10.53
2023-02-28T14:27:42.554Z,10.55
2023-02-28T14:31:06.066Z,10.56
2023-02-28T14:33:47.058Z,10.51
2023-02-28T14:36:40.079Z,10.46
2023-02-28T14:39:23.937Z,10.60
2023-02-28T14:41:56.781Z,10.51
2023-02-28T14:44:28.615Z,10.51
2023-02-28T14:46:59.452Z,10.35
2023-02-28T14:49:33.808Z,10.45
2023-02-28T14:52:14.757Z,10.58
2023-02-28T14:54:44.831Z,10.49
2023-02-28T14:57:35.222Z,10.56
2023-02-28T15:00:35.192Z,10.51
2023-02-28T15:03:36.436Z,10.43
2023-02-28T15:06:19.190Z,10.47
2023-02-28T15:09:12.771Z,10.61
2023-02-28T15:11:50.197Z,10.57
2023-02-28T15:14:29.379Z,10.65
2023-02-28T15:17:05.300Z,10.65
2023-02-28T15:19:40.974Z,10.58
2023-02-28T15:22:20.154Z,10.66
2023-02-28T15:24:54.115Z,10.59
2023-02-28T15:27:33.511Z,10.64
2023-02-28T15:30:09.344Z,10.52
2023-02-28T15:32:43.732Z,10.43
2023-02-28T15:35:33.893Z,10.48
2023-02-28T15:38:20.759Z,10.38
2023-02-28T15:41:00.658Z,10.40
2023-02-28T15:43:35.140Z,10.40
2023-02-28T15:46:16.362Z,10.41
2023-02-28T15:48:56.456Z,10.42
2023-02-28T15:51:35.752Z,10.37
2023-02-28T15:54:16.432Z,10.36
2023-02-28T15:56:54.553Z,10.26
2023-02-28T15:59:30.728Z,10.26
2023-02-28T16:02:23.315Z,10.22
2023-02-28T16:05:14.961Z,10.13
2023-02-28T16:07:46.950Z,10.06
2023-02-28T16:10:16.504Z,9.95
2023-02-28T16:12:45.445Z,10.05
2023-02-28T16:15:31.332Z,9.97
2023-02-28T16:17:59.915Z,10.01
2023-02-28T16:20:34.924Z,9.92
2023-02-28T16:23:03.996Z,9.98
2023-02-28T16:25:45.134Z,9.98
2023-02-28T16:28:32.683Z,9.88
2023-02-28T16:31:06.247Z,9.78
2023-02-28T16:33:36.118Z,9.88
2023-02-28T16:36:07.477Z,9.88
2023-02-28T16:38:35.727Z,9.79
2023-02-28T16:41:06.479Z,9.80
2023-02-28T16:43:36.208Z,9.81
2023-02-28T16:46:06.668Z,9.78
2023-02-28T16:48:34.830Z,9.71
2023-02-28T16:51:05.824Z,9.56
2023-02-28T16:53:35.890Z,9.62
2023-02-28T16:56:05.462Z,9.61
2023-02-28T16:58:36.974Z,9.57
2023-02-28T17:01:06.210Z,9.38
2023-02-28T17:03:35.119Z,9.50
2023-02-28T17:06:30.871Z,9.40
2023-02-28T17:09:03.076Z,9.37
2023-02-28T17:11:34.914Z,9.42
2023-02-28T17:14:04.543Z,9.34
2023-02-28T17:16:38.490Z,9.33
2023-02-28T17:19:12.087Z,9.31
2023-02-28T17:21:43.909Z,9.32
2023-02-28T17:24:28.914Z,9.20
2023-02-28T17:26:59.756Z,9.14
2023-02-28T17:29:28.972Z,9.19
2023-02-28T17:32:00.799Z,9.16
2023-02-28T17:34:31.448Z,9.02
2023-02-28T17:37:03.955Z,9.03
2023-02-28T17:39:33.153Z,8.79
2023-02-28T17:42:01.134Z,8.89
2023-02-28T17:44:30.718Z,9.01
2023-02-28T17:47:01.103Z,8.92
2023-02-28T17:49:29.491Z,8.89
2023-02-28T17:51:59.335Z,8.87
2023-02-28T17:54:28.584Z,8.93
2023-02-28T17:56:57.294Z,8.94
2023-02-28T17:59:25.449Z,8.89
2023-02-28T18:01:56.651Z,8.93
2023-02-28T18:04:28.162Z,8.94
2023-02-28T18:07:00.828Z,8.76
2023-02-28T18:09:28.552Z,8.76
2023-02-28T18:11:57.072Z,8.82
2023-02-28T18:14:26.488Z,8.83
2023-02-28T18:16:57.402Z,8.79
2023-02-28T18:19:25.135Z,8.81
2023-02-28T18:21:57.272Z,8.78
2023-02-28T18:24:25.233Z,8.77
2023-02-28T18:26:53.113Z,8.77
2023-02-28T18:29:25.317Z,8.76
2023-02-28T18:31:59.451Z,8.73
2023-02-28T18:34:33.308Z,8.68
2023-02-28T18:37:04.761Z,8.68
2023-02-28T18:39:32.723Z,8.63
2023-02-28T18:42:00.706Z,8.64
2023-02-28T18:44:28.418Z,8.62
2023-02-28T18:46:56.225Z,8.62
2023-02-28T18:49:23.967Z,8.59
2023-02-28T18:51:52.845Z,8.57
2023-02-28T18:54:20.849Z,8.56
2023-02-28T18:56:50.808Z,8.52
2023-02-28T18:59:21.062Z,8.52
2023-02-28T19:01:51.315Z,8.50
2023-02-28T19:04:19.172Z,8.46
2023-02-28T19:06:46.912Z,8.43
2023-02-28T19:09:14.678Z,8.46
2023-02-28T19:11:42.664Z,8.44
2023-02-28T19:14:10.699Z,8.42
2023-02-28T19:16:39.894Z,8.41
2023-02-28T19:19:07.883Z,8.41
2023-02-28T19:21:36.715Z,8.43
2023-02-28T19:24:05.343Z,8.38
2023-02-28T19:26:33.824Z,8.40
2023-02-28T19:29:06.058Z,8.38
2023-02-28T19:31:33.908Z,8.36
2023-02-28T19:34:04.684Z,8.34
2023-02-28T19:36:33.383Z,8.31
2023-02-28T19:39:01.337Z,8.30
2023-02-28T19:41:29.288Z,8.30
2023-02-28T19:43:57.279Z,8.26
2023-02-28T19:46:25.604Z,8.24
2023-02-28T19:48:56.167Z,8.21
2023-02-28T19:51:24.490Z,8.21
2023-02-28T19:53:52.414Z,8.20
2023-02-28T19:56:20.262Z,8.17
2023-02-28T19:58:48.206Z,8.10
2023-02-28T20:01:19.622Z,8.14
2023-02-28T20:03:51.252Z,8.08
2023-02-28T20:06:19.144Z,8.10
2023-02-28T20:08:48.609Z,8.09
2023-02-28T20:11:17.687Z,8.06
2023-02-28T20:13:48.339Z,8.02
2023-02-28T20:16:16.647Z,7.98
2023-02-28T20:18:47.450Z,7.95
2023-02-28T20:21:16.493Z,7.91
2023-02-28T20:23:48.593Z,7.90
2023-02-28T20:26:20.237Z,7.88
2023-02-28T20:28:48.656Z,7.83
2023-02-28T20:31:25.500Z,7.82
2023-02-28T20:33:53.475Z,7.75
2023-02-28T20:36:23.593Z,7.71
2023-02-28T20:38:53.083Z,7.68
2023-02-28T20:41:21.780Z,7.65
2023-02-28T20:44:00.839Z,7.62
2023-02-28T20:46:31.294Z,7.57
2023-02-28T20:48:59.331Z,7.55
2023-02-28T20:51:27.119Z,7.53
2023-02-28T20:53:54.982Z,7.53
2023-02-28T20:56:25.982Z,7.50
2023-02-28T20:59:13.943Z,7.44
2023-02-28T21:01:44.749Z,7.43
2023-02-28T21:04:12.663Z,7.41
2023-02-28T21:06:43.718Z,7.42
2023-02-28T21:09:14.405Z,7.45
2023-02-28T21:11:42.623Z,7.41
2023-02-28T21:14:16.424Z,7.45
2023-02-28T21:16:48.111Z,7.39
2023-02-28T21:19:16.931Z,7.39
2023-02-28T21:21:46.665Z,7.36
2023-02-28T21:24:19.774Z,7.27
2023-02-28T21:26:48.172Z,7.23
2023-02-28T21:29:16.113Z,7.26
2023-02-28T21:31:44.114Z,7.26
2023-02-28T21:34:13.512Z,7.27
2023-02-28T21:36:47.446Z,7.23
2023-02-28T21:39:19.779Z,7.22
2023-02-28T21:41:48.035Z,7.20
2023-02-28T21:44:19.542Z,7.19
2023-02-28T21:46:52.565Z,7.14
2023-02-28T21:49:20.722Z,7.14
2023-02-28T21:51:48.834Z,7.13
2023-02-28T21:54:16.707Z,7.09
2023-02-28T21:56:44.634Z,7.08
2023-02-28T21:59:13.080Z,7.04
2023-02-28T22:01:46.466Z,7.01
2023-02-28T22:04:22.017Z,6.94
2023-02-28T22:06:53.619Z,6.90
2023-02-28T22:09:21.800Z,6.85
2023-02-28T22:11:50.398Z,6.82
2023-02-28T22:14:18.808Z,6.84
2023-02-28T22:16:51.718Z,6.77
2023-02-28T22:19:22.099Z,6.82
2023-02-28T22:21:50.436Z,6.80
2023-02-28T22:24:20.993Z,6.79
2023-02-28T22:26:55.627Z,6.77
2023-02-28T22:29:23.454Z,6.56
2023-02-28T22:31:51.430Z,6.60
2023-02-28T22:34:20.627Z,6.63
2023-02-28T22:36:54.946Z,6.61
2023-02-28T22:39:22.713Z,6.57
2023-02-28T22:41:51.229Z,6.60
2023-02-28T22:44:19.966Z,6.61
2023-02-28T22:46:53.805Z,6.61
2023-02-28T22:49:22.560Z,6.61
2023-02-28T22:51:57.605Z,6.61
2023-02-28T22:54:25.612Z,6.61
2023-02-28T22:56:53.424Z,6.58
2023-02-28T22:59:22.263Z,6.58
2023-02-28T23:01:54.317Z,6.60
2023-02-28T23:04:32.685Z,6.59
2023-02-28T23:07:01.143Z,6.53
2023-02-28T23:09:28.934Z,6.50
2023-02-28T23:11:56.636Z,6.45
2023-02-28T23:14:24.360Z,6.36
2023-02-28T23:16:54.944Z,6.28
2023-02-28T23:19:29.874Z,6.20
2023-02-28T23:21:59.974Z,6.17
2023-02-28T23:24:31.281Z,6.14
2023-02-28T23:27:01.436Z,5.93
2023-02-28T23:29:29.701Z,5.99
2023-02-28T23:31:58.295Z,5.97
2023-02-28T23:34:30.205Z,5.95
2023-02-28T23:37:02.114Z,6.01
2023-02-28T23:39:31.293Z,5.99
2023-02-28T23:41:59.854Z,6.00
2023-02-28T23:44:28.107Z,6.01
2023-02-28T23:46:55.999Z,6.01
2023-02-28T23:49:23.884Z,6.01
2023-02-28T23:51:54.207Z,6.02
2023-02-28T23:54:22.338Z,6.01
2023-02-28T23:56:50.365Z,6.05
2023-02-28T23:59:18.250Z,6.07
